Time;durP1;ratioP1;P1;durP2;ratioP2;P2;SDS_P1;SDS_P2;PMS_P1;PMS_P2;Temp;Humidity;BMP_temperature;BMP_pressure;BME280_temperature;BME280_humidity;BME280_pressure;Samples;Min_cycle;Max_cycle;Signal;HPM_P1;HPM_P2
2022/01/30 00:01:47;;;;;;;12.38;5.63;;;;;;;-3.21;72.06;97896.41;5034241;28;20140;-62
2022/01/30 00:04:14;;;;;;;13.98;5.70;;;;;;;-3.22;71.83;97897.50;5035146;28;20118;-62
2022/01/30 00:06:41;;;;;;;12.38;5.72;;;;;;;-3.20;71.79;97894.50;5034966;28;20491;-63
2022/01/30 00:09:15;;;;;;;14.73;6.25;;;;;;;-3.26;71.71;97882.84;5030921;28;20382;-62
2022/01/30 00:11:45;;;;;;;172.77;46.97;;;;;;;-3.20;71.74;97889.06;5035326;28;20041;-62
2022/01/30 00:14:15;;;;;;;23.85;10.02;;;;;;;-3.19;71.38;97888.78;5034808;28;20128;-61
2022/01/30 00:16:42;;;;;;;11.45;5.50;;;;;;;-3.12;71.63;97877.53;5034156;28;20077;-61
2022/01/30 00:19:23;;;;;;;12.00;5.72;;;;;;;-3.07;71.15;97875.63;5035424;28;20526;-63
2022/01/30 00:22:00;;;;;;;12.95;5.78;;;;;;;-3.05;71.64;97878.84;5035147;28;20588;-61
2022/01/30 00:24:43;;;;;;;9.48;4.72;;;;;;;-3.04;71.21;97868.78;5034533;28;20061;-62
2022/01/30 00:27:16;;;;;;;9.40;4.72;;;;;;;-3.05;71.13;97859.00;5034614;28;20092;-62
2022/01/30 00:29:43;;;;;;;9.02;4.78;;;;;;;-3.06;71.10;97863.63;5030637;28;20055;-62
2022/01/30 00:32:10;;;;;;;10.50;5.15;;;;;;;-3.04;71.46;97856.00;5033216;28;20058;-62
2022/01/30 00:34:57;;;;;;;13.10;5.38;;;;;;;-3.04;70.90;97847.03;5033353;28;20053;-62
2022/01/30 00:37:24;;;;;;;10.77;5.28;;;;;;;-3.03;71.03;97846.75;5034402;28;20053;-62
2022/01/30 00:39:51;;;;;;;12.32;5.53;;;;;;;-3.00;71.31;97837.19;5034520;28;20052;-62
2022/01/30 00:42:18;;;;;;;12.95;4.97;;;;;;;-3.06;71.39;97833.72;5034285;28;20049;-59
2022/01/30 00:44:45;;;;;;;11.52;4.78;;;;;;;-3.06;71.08;97828.28;5034833;28;20144;-59
2022/01/30 00:47:14;;;;;;;9.43;4.80;;;;;;;-3.04;71.43;97820.66;5034181;28;20057;-60
2022/01/30 00:49:40;;;;;;;7.25;4.22;;;;;;;-3.05;71.32;97816.28;5030767;28;20412;-60
2022/01/30 00:52:10;;;;;;;10.90;4.95;;;;;;;-3.02;71.12;97802.13;5034291;28;20064;-59
2022/01/30 00:54:37;;;;;;;9.13;4.18;;;;;;;-3.10;70.63;97796.50;5033533;28;20056;-61
2022/01/30 00:57:05;;;;;;;7.78;3.97;;;;;;;-3.19;71.23;97790.91;5034434;28;20054;-60
2022/01/30 00:59:32;;;;;;;13.50;4.55;;;;;;;-3.14;71.35;97782.66;5033855;28;20059;-59
2022/01/30 01:01:58;;;;;;;9.85;4.05;;;;;;;-3.04;70.70;97787.19;5034091;28;20049;-57
2022/01/30 01:04:26;;;;;;;10.18;4.40;;;;;;;-2.98;70.47;97789.59;5033734;28;20415;-59
2022/01/30 01:06:53;;;;;;;8.50;3.22;;;;;;;-2.98;70.40;97775.97;5034612;28;20132;-60
2022/01/30 01:09:21;;;;;;;7.97;3.22;;;;;;;-2.95;70.10;97777.31;5033440;28;20060;-59
2022/01/30 01:25:23;;;;;;;4.32;2.30;;;;;;;-3.07;70.37;97753.25;5033561;28;20517;-55
2022/01/30 01:27:50;;;;;;;74.38;17.17;;;;;;;-3.10;69.91;97753.81;5033588;28;20060;-58
2022/01/30 01:30:18;;;;;;;7.32;4.10;;;;;;;-3.08;69.68;97753.53;5033643;28;20103;-57
2022/01/30 01:32:45;;;;;;;6.47;3.30;;;;;;;-3.03;69.62;97757.00;5033368;28;20076;-57
2022/01/30 01:35:12;;;;;;;7.28;3.55;;;;;;;-3.02;70.04;97747.72;5033583;28;20048;-58
2022/01/30 01:37:39;;;;;;;5.00;2.58;;;;;;;-3.04;70.32;97747.22;5033380;28;20060;-60
2022/01/30 01:40:06;;;;;;;7.72;2.63;;;;;;;-3.04;69.81;97744.50;5033543;28;20504;-59
2022/01/30 01:42:35;;;;;;;6.75;2.50;;;;;;;-3.00;69.85;97740.09;5033130;28;20064;-60
2022/01/30 01:45:04;;;;;;;5.35;2.50;;;;;;;-3.00;69.51;97729.22;5033698;28;20049;-57
2022/01/30 01:47:33;;;;;;;4.15;2.30;;;;;;;-3.01;69.08;97722.16;5033096;28;20053;-56
2022/01/30 01:50:00;;;;;;;4.43;2.20;;;;;;;-2.99;68.68;97713.72;5033310;28;20049;-58
2022/01/30 01:52:30;;;;;;;4.68;2.30;;;;;;;-3.02;68.98;97723.25;5032968;28;20052;-58
2022/01/30 01:54:59;;;;;;;6.90;2.38;;;;;;;-3.04;69.27;97713.78;5033137;28;20061;-58
2022/01/30 01:57:27;;;;;;;3.47;2.28;;;;;;;-3.04;68.67;97716.50;5032948;28;20060;-58
2022/01/30 01:59:56;;;;;;;7.32;2.63;;;;;;;-3.12;69.08;97720.66;5028955;28;20080;-60
2022/01/30 02:02:24;;;;;;;5.25;2.30;;;;;;;-3.19;69.09;97720.22;5032739;28;20076;-59
2022/01/30 02:04:51;;;;;;;5.38;2.47;;;;;;;-3.23;68.98;97718.34;5033187;28;20053;-58
2022/01/30 02:09:48;;;;;;;4.43;2.05;;;;;;;-3.30;68.83;97713.25;5032532;28;20049;-58
2022/01/30 02:12:20;;;;;;;3.33;1.92;;;;;;;-3.31;68.91;97706.22;5023201;28;20044;-58
2022/01/30 02:28:07;;;;;;;3.83;2.10;;;;;;;-3.26;68.63;97665.34;5031981;28;20061;-58
2022/01/30 02:30:37;;;;;;;6.50;1.98;;;;;;;-3.29;68.58;97665.16;5031058;28;20053;-58
2022/01/30 02:33:04;;;;;;;4.55;2.83;;;;;;;-3.38;68.51;97659.50;5031838;28;20111;-59
2022/01/30 02:35:31;;;;;;;4.80;2.08;;;;;;;-3.47;68.59;97658.53;5032561;28;20131;-58
2022/01/30 02:38:00;;;;;;;4.95;2.10;;;;;;;-3.56;68.31;97662.97;5032088;28;20063;-60
2022/01/30 02:40:32;;;;;;;4.80;2.50;;;;;;;-3.65;69.09;97644.91;5032563;28;20042;-60
2022/01/30 02:42:59;;;;;;;4.50;2.50;;;;;;;-3.66;69.21;97638.66;5032259;28;20515;-61
2022/01/30 02:45:30;;;;;;;3.97;2.05;;;;;;;-3.60;68.98;97629.34;5032064;28;20056;-58
2022/01/30 02:53:18;;;;;;;4.70;2.30;;;;;;;-3.43;68.53;97634.31;5032164;28;20077;-58
2022/01/30 02:55:45;;;;;;;4.05;2.20;;;;;;;-3.40;68.98;97623.69;5032041;28;20508;-61
2022/01/30 02:58:11;;;;;;;5.35;2.80;;;;;;;-3.36;68.50;97627.44;5031822;28;20046;-62
2022/01/30 03:00:38;;;;;;;5.18;2.22;;;;;;;-3.31;68.80;97621.94;5032392;28;20041;-62
2022/01/30 03:03:05;;;;;;;5.72;2.88;;;;;;;-3.31;68.58;97612.97;5031769;28;20060;-62
2022/01/30 03:05:33;;;;;;;4.15;2.30;;;;;;;-3.37;68.83;97625.00;5032062;28;20599;-62
2022/01/30 03:07:59;;;;;;;5.40;2.47;;;;;;;-3.45;69.00;97617.47;5030152;28;20049;-61
2022/01/30 03:10:26;;;;;;;6.82;3.08;;;;;;;-3.41;69.18;97611.19;5031818;28;20046;-62
2022/01/30 03:12:53;;;;;;;6.45;2.40;;;;;;;-3.32;68.16;97623.03;5029956;28;20082;-63
2022/01/30 03:15:20;;;;;;;4.38;2.60;;;;;;;-3.36;69.14;97622.00;5031818;28;20077;-63
2022/01/30 03:17:47;;;;;;;5.82;2.53;;;;;;;-3.39;69.21;97611.69;5030193;28;20061;-62
2022/01/30 03:20:14;;;;;;;5.13;2.80;;;;;;;-3.40;68.84;97610.09;5030522;28;20077;-62
2022/01/30 03:22:41;;;;;;;6.70;3.28;;;;;;;-3.43;69.14;97605.25;5029912;28;20087;-61
2022/01/30 03:25:08;;;;;;;5.18;2.50;;;;;;;-3.47;69.09;97596.03;5031310;28;20061;-61
2022/01/30 03:27:35;;;;;;;4.32;2.17;;;;;;;-3.40;69.27;97603.84;5031516;28;20092;-62
2022/01/30 03:30:04;;;;;;;2.63;1.67;;;;;;;-3.39;69.04;97610.88;5031722;28;20048;-62
2022/01/30 03:32:32;;;;;;;3.78;1.80;;;;;;;-3.58;68.97;97586.41;5030422;28;20061;-61
2022/01/30 03:34:59;;;;;;;4.85;2.63;;;;;;;-3.67;69.96;97592.75;5031155;28;20515;-62
2022/01/30 03:37:26;;;;;;;5.40;2.67;;;;;;;-3.65;69.78;97583.22;5032139;28;20441;-61
2022/01/30 03:39:53;;;;;;;4.65;2.85;;;;;;;-3.57;70.30;97582.56;5031140;28;20509;-62
2022/01/30 03:42:20;;;;;;;8.43;2.53;;;;;;;-3.49;69.33;97575.69;5031519;28;20136;-62
2022/01/30 03:44:48;;;;;;;5.10;2.50;;;;;;;-3.40;69.22;97591.06;5031365;28;20053;-62
2022/01/30 03:47:14;;;;;;;6.25;2.75;;;;;;;-3.41;68.97;97573.13;5031724;28;20053;-61
2022/01/30 03:49:42;;;;;;;5.25;2.75;;;;;;;-3.39;69.47;97568.22;5031225;28;20548;-62
2022/01/30 03:52:08;;;;;;;5.43;2.42;;;;;;;-3.31;69.71;97559.44;5031946;28;20049;-62
2022/01/30 03:54:35;;;;;;;5.68;2.38;;;;;;;-3.26;68.99;97559.34;5031196;28;20057;-61
2022/01/30 03:57:03;;;;;;;4.45;2.38;;;;;;;-3.29;69.46;97550.97;5032161;28;20045;-61
2022/01/30 03:59:30;;;;;;;4.55;2.70;;;;;;;-3.35;69.56;97542.06;5031057;28;20060;-59
2022/01/30 04:01:57;;;;;;;3.88;2.50;;;;;;;-3.37;69.74;97538.84;5031572;28;20073;-59
2022/01/30 04:04:25;;;;;;;4.00;2.15;;;;;;;-3.41;68.88;97537.78;5031297;28;20103;-60
2022/01/30 04:06:52;;;;;;;6.28;2.65;;;;;;;-3.40;69.87;97541.34;5032028;28;20057;-61
2022/01/30 04:09:19;;;;;;;4.75;2.53;;;;;;;-3.39;69.40;97557.34;5031125;28;20057;-57
2022/01/30 04:11:46;;;;;;;5.35;2.47;;;;;;;-3.58;69.20;97532.06;5025870;28;20050;-58
2022/01/30 04:14:13;;;;;;;4.95;2.50;;;;;;;-3.59;70.24;97535.88;5031280;28;20084;-58
2022/01/30 04:16:40;;;;;;;5.07;2.28;;;;;;;-3.59;69.42;97525.00;5030527;28;20136;-59
2022/01/30 04:19:08;;;;;;;3.67;2.10;;;;;;;-3.54;69.23;97529.56;5031367;28;20049;-59
2022/01/30 04:21:35;;;;;;;3.55;2.15;;;;;;;-3.56;70.18;97524.41;5030715;28;20132;-58
2022/01/30 04:24:02;;;;;;;5.35;2.40;;;;;;;-3.60;70.04;97517.94;5031062;28;20091;-58
2022/01/30 04:26:29;;;;;;;3.53;2.13;;;;;;;-3.64;70.02;97522.38;5030890;28;20068;-59
2022/01/30 04:28:56;;;;;;;4.15;2.42;;;;;;;-3.58;70.22;97525.81;5031321;28;20409;-59
2022/01/30 04:31:24;;;;;;;3.95;2.38;;;;;;;-3.54;70.06;97511.34;5031001;28;20155;-58
2022/01/30 04:33:51;;;;;;;5.05;2.72;;;;;;;-3.50;70.05;97512.38;5030344;28;20543;-58
2022/01/30 04:36:24;;;;;;;6.13;2.33;;;;;;;-3.51;70.16;97509.94;5032511;28;20116;-57
2022/01/30 04:41:59;;;;;;;5.00;2.47;;;;;;;-3.49;69.52;97503.16;5034254;28;20459;-55
2022/01/30 05:03:06;;;;;;;4.05;1.70;;;;;;;-3.71;70.36;97483.84;5034375;28;20049;-59
2022/01/30 05:05:58;;;;;;;3.30;2.13;;;;;;;-3.81;70.24;97470.41;5031591;28;20065;-60
2022/01/30 05:08:25;;;;;;;3.42;1.83;;;;;;;-3.80;70.36;97469.31;5033587;28;20128;-59
2022/01/30 05:10:53;;;;;;;4.95;2.50;;;;;;;-3.69;69.87;97475.41;5034059;28;20060;-58
2022/01/30 05:13:28;;;;;;;3.75;1.90;;;;;;;-3.76;70.16;97468.44;5033361;28;20079;-59
2022/01/30 05:15:55;;;;;;;5.03;1.77;;;;;;;-3.75;69.76;97477.41;5034117;28;20055;-58
2022/01/30 05:18:25;;;;;;;4.35;2.78;;;;;;;-3.69;70.72;97470.81;5033353;28;20574;-58
2022/01/30 05:20:52;;;;;;;4.20;2.07;;;;;;;-3.62;70.22;97476.69;5033593;28;20046;-61
2022/01/30 05:23:20;;;;;;;4.63;2.30;;;;;;;-3.59;70.12;97470.66;5033779;28;20404;-59
2022/01/30 05:25:48;;;;;;;3.78;2.40;;;;;;;-3.54;70.04;97480.66;5033525;28;20479;-57
2022/01/30 05:28:17;;;;;;;3.90;2.00;;;;;;;-3.52;69.83;97483.88;5032550;28;20083;-58
2022/01/30 05:30:44;;;;;;;3.05;1.98;;;;;;;-3.57;69.60;97462.22;5033778;28;20056;-58
2022/01/30 05:33:12;;;;;;;3.35;1.33;;;;;;;-3.62;69.93;97475.88;5033615;28;20041;-57
2022/01/30 05:35:40;;;;;;;2.63;1.55;;;;;;;-3.83;69.68;97469.88;5033673;28;20057;-58
2022/01/30 05:38:07;;;;;;;5.80;2.38;;;;;;;-3.83;70.50;97464.47;5033374;28;20053;-57
2022/01/30 05:40:37;;;;;;;2.65;1.63;;;;;;;-3.75;69.74;97452.97;5033789;28;20648;-58
2022/01/30 05:43:05;;;;;;;3.97;2.08;;;;;;;-3.78;69.73;97454.38;5033265;28;20468;-57
2022/01/30 05:45:42;;;;;;;5.30;1.55;;;;;;;-3.75;70.18;97450.25;5033119;28;20277;-52
2022/01/30 05:48:15;;;;;;;2.47;1.65;;;;;;;-3.69;70.37;97449.06;5032695;28;20077;-57
2022/01/30 05:50:43;;;;;;;3.42;1.70;;;;;;;-3.68;70.42;97445.25;5030351;28;20133;-56
2022/01/30 05:53:11;;;;;;;3.97;2.10;;;;;;;-3.60;70.14;97458.19;5032957;28;20071;-55
2022/01/30 05:55:38;;;;;;;3.28;1.95;;;;;;;-3.52;69.54;97443.94;5033240;28;20068;-57
2022/01/30 05:58:05;;;;;;;4.22;1.83;;;;;;;-3.57;70.05;97452.16;5033010;28;20057;-50
2022/01/30 06:00:32;;;;;;;3.53;1.60;;;;;;;-3.72;70.07;97446.94;5023459;28;20038;-56
2022/01/30 06:02:58;;;;;;;3.22;1.67;;;;;;;-3.73;70.02;97448.06;5032808;28;20055;-53
2022/01/30 06:05:26;;;;;;;1.55;1.02;;;;;;;-3.78;70.42;97457.06;5033076;28;20140;-56
2022/01/30 06:07:55;;;;;;;1.10;0.85;;;;;;;-3.90;70.63;97445.81;5032794;28;20103;-54
2022/01/30 06:10:27;;;;;;;2.70;1.23;;;;;;;-3.94;70.72;97446.66;5032486;28;20053;-55
2022/01/30 06:12:54;;;;;;;4.13;1.38;;;;;;;-3.87;70.55;97434.34;5033082;28;20041;-58
2022/01/30 06:15:21;;;;;;;2.28;1.30;;;;;;;-3.83;70.63;97427.25;5032651;28;20099;-59
2022/01/30 06:17:48;;;;;;;2.88;1.40;;;;;;;-3.77;69.92;97425.28;5033080;28;20512;-57
2022/01/30 06:20:15;;;;;;;2.35;1.35;;;;;;;-3.72;70.53;97427.94;5031349;28;20045;-56
2022/01/30 06:22:42;;;;;;;1.95;1.02;;;;;;;-3.78;70.17;97421.78;5032773;28;20087;-58
2022/01/30 06:25:13;;;;;;;1.45;0.98;;;;;;;-3.83;70.32;97426.44;5031938;28;20065;-56
2022/01/30 06:27:40;;;;;;;2.85;1.58;;;;;;;-3.77;71.30;97436.13;5032722;28;20543;-56
2022/01/30 06:30:08;;;;;;;2.90;1.70;;;;;;;-3.73;70.50;97437.19;5030716;28;20056;-57
2022/01/30 06:32:35;;;;;;;3.53;1.40;;;;;;;-3.78;70.06;97434.53;5032609;28;20079;-56
2022/01/30 06:35:04;;;;;;;2.33;1.30;;;;;;;-3.79;70.19;97428.28;5031879;28;20146;-58
2022/01/30 06:37:32;;;;;;;3.42;1.50;;;;;;;-3.73;70.41;97430.94;5032533;28;20081;-58
2022/01/30 06:39:59;;;;;;;2.38;1.58;;;;;;;-3.70;70.25;97425.75;5032154;28;20045;-57
2022/01/30 06:42:29;;;;;;;2.13;1.23;;;;;;;-3.61;70.27;97428.59;5031808;28;20057;-57
2022/01/30 06:44:56;;;;;;;2.97;1.38;;;;;;;-3.62;70.14;97430.50;5031586;28;20050;-57
2022/01/30 06:47:23;;;;;;;1.70;1.10;;;;;;;-3.60;70.26;97439.16;5032119;28;20132;-55
2022/01/30 06:49:51;;;;;;;2.33;1.33;;;;;;;-3.61;70.23;97432.13;5032179;28;20041;-59
2022/01/30 06:52:18;;;;;;;3.47;1.33;;;;;;;-3.64;70.38;97426.47;5032594;28;20408;-59
2022/01/30 06:54:45;;;;;;;1.85;1.02;;;;;;;-3.62;70.52;97422.34;5032137;28;20107;-59
2022/01/30 06:57:12;;;;;;;4.72;1.40;;;;;;;-3.55;70.80;97427.41;5032259;28;20137;-60
2022/01/30 06:59:39;;;;;;;2.40;1.23;;;;;;;-3.56;69.96;97429.31;5030009;28;20049;-58
2022/01/30 07:02:09;;;;;;;1.88;1.10;;;;;;;-3.57;70.46;97418.75;5031519;28;20053;-59
2022/01/30 07:04:36;;;;;;;3.03;1.10;;;;;;;-3.65;70.67;97428.38;5031644;28;20054;-59
2022/01/30 07:07:04;;;;;;;3.00;1.40;;;;;;;-3.71;70.84;97418.66;5031475;28;20091;-57
2022/01/30 07:09:32;;;;;;;4.15;1.40;;;;;;;-3.68;70.92;97420.00;5031747;28;20132;-60
2022/01/30 07:11:59;;;;;;;1.90;1.20;;;;;;;-3.67;70.23;97425.16;5031625;28;20140;-58
2022/01/30 07:14:26;;;;;;;2.08;1.40;;;;;;;-3.66;69.96;97421.31;5031925;28;20050;-57
2022/01/30 07:16:53;;;;;;;1.80;1.00;;;;;;;-3.70;69.45;97414.88;5031843;28;20064;-57
2022/01/30 07:19:20;;;;;;;6.00;1.20;;;;;;;-3.70;69.62;97406.72;5030537;28;20049;-59
2022/01/30 07:21:47;;;;;;;1.67;0.98;;;;;;;-3.63;69.34;97422.63;5031494;28;20042;-61
2022/01/30 07:24:14;;;;;;;1.15;0.80;;;;;;;-3.66;69.82;97410.47;5031584;28;20413;-59
2022/01/30 07:26:41;;;;;;;1.50;0.85;;;;;;;-3.67;69.41;97402.59;5031736;28;20064;-61
2022/01/30 07:29:12;;;;;;;2.08;1.38;;;;;;;-3.60;69.39;97409.28;5028528;28;20099;-59
2022/01/30 07:31:39;;;;;;;1.52;0.98;;;;;;;-3.53;69.45;97404.28;5029905;28;20424;-59
2022/01/30 07:34:06;;;;;;;2.33;1.13;;;;;;;-3.55;69.49;97400.25;5031714;28;20096;-58
2022/01/30 07:36:37;;;;;;;2.42;1.23;;;;;;;-3.49;69.54;97409.94;5031487;28;20061;-59
2022/01/30 07:39:07;;;;;;;1.83;1.10;;;;;;;-3.41;69.67;97412.00;5031948;28;20049;-59
2022/01/30 07:41:34;;;;;;;2.10;1.30;;;;;;;-3.41;69.83;97406.56;5031488;28;20531;-59
2022/01/30 07:44:04;;;;;;;1.90;1.20;;;;;;;-3.35;69.85;97408.88;5031402;28;20064;-61
2022/01/30 07:46:31;;;;;;;;;;;;;;;-3.30;68.58;97403.38;5032221;28;20049;-60
2022/01/30 07:48:59;;;;;;;1.83;1.10;;;;;;;-3.46;69.28;97393.88;5031479;28;19991;-60
2022/01/30 07:51:26;;;;;;;2.10;1.25;;;;;;;-3.46;69.24;97391.16;5031395;28;20053;-58
2022/01/30 07:53:53;;;;;;;0.98;0.77;;;;;;;-3.43;69.33;97395.19;5031534;28;20144;-59
2022/01/30 07:56:20;;;;;;;2.03;1.35;;;;;;;-3.44;69.25;97423.47;5031254;28;20144;-58
2022/01/30 07:58:47;;;;;;;2.55;1.23;;;;;;;-3.46;69.34;97398.47;5028525;28;20048;-60
2022/01/30 08:01:14;;;;;;;2.00;1.10;;;;;;;-3.42;68.88;97394.88;5030369;28;20144;-59
2022/01/30 08:03:41;;;;;;;3.22;1.67;;;;;;;-3.34;69.35;97391.50;5030896;28;20067;-59
2022/01/30 08:06:08;;;;;;;2.22;1.27;;;;;;;-3.33;68.83;97386.84;5031293;28;20057;-58
2022/01/30 08:08:36;;;;;;;2.33;1.38;;;;;;;-3.30;68.71;97387.06;5029773;28;20107;-58
2022/01/30 08:11:03;;;;;;;2.47;1.35;;;;;;;-3.28;67.98;97375.91;5032977;28;20045;-59
2022/01/30 08:13:30;;;;;;;2.83;1.48;;;;;;;-3.18;68.50;97389.31;5035256;28;20053;-59
2022/01/30 08:15:58;;;;;;;1.60;1.02;;;;;;;-3.06;68.00;97376.88;5031578;28;20141;-59
2022/01/30 08:18:25;;;;;;;2.92;1.30;;;;;;;-3.02;67.58;97369.72;5034826;28;20512;-60
2022/01/30 08:20:54;;;;;;;2.40;1.30;;;;;;;-2.98;67.68;97387.09;5033402;28;20053;-56
2022/01/30 08:23:23;;;;;;;4.22;1.40;;;;;;;-2.96;67.49;97370.47;5035118;28;20045;-60
2022/01/30 08:25:50;;;;;;;2.10;1.10;;;;;;;-2.88;67.48;97376.00;5034084;28;20149;-61
2022/01/30 08:28:17;;;;;;;19.35;5.50;;;;;;;-2.90;67.50;97380.94;5034985;28;20080;-59
2022/01/30 08:30:45;;;;;;;9.13;2.67;;;;;;;-2.89;67.40;97377.13;5034089;28;20041;-60
2022/01/30 08:33:16;;;;;;;5.70;1.77;;;;;;;-2.98;67.12;97378.94;5027213;28;20128;-60
2022/01/30 08:35:44;;;;;;;2.92;1.60;;;;;;;-3.06;67.55;97384.22;5034131;28;20060;-60
2022/01/30 08:38:14;;;;;;;2.65;1.30;;;;;;;-3.09;67.56;97374.75;5034557;28;20420;-60
2022/01/30 08:40:41;;;;;;;2.17;1.10;;;;;;;-3.07;67.38;97369.84;5033992;28;20072;-60
2022/01/30 08:43:08;;;;;;;1.25;0.90;;;;;;;-3.05;66.95;97394.81;5034711;28;20099;-59
2022/01/30 08:45:36;;;;;;;1.60;1.00;;;;;;;-3.18;67.07;97390.13;5034030;28;20508;-59
2022/01/30 08:48:04;;;;;;;2.13;1.13;;;;;;;-3.23;67.51;97363.03;5032914;28;20125;-58
2022/01/30 08:50:32;;;;;;;2.22;1.13;;;;;;;-3.11;67.59;97357.94;5034298;28;21502;-60
2022/01/30 08:52:59;;;;;;;3.90;1.38;;;;;;;-3.10;66.69;97356.84;5034541;28;20140;-60
2022/01/30 08:55:29;;;;;;;2.80;1.60;;;;;;;-2.98;66.63;97373.50;5033658;28;20049;-59
2022/01/30 08:57:57;;;;;;;5.90;1.90;;;;;;;-2.91;66.09;97360.28;5034485;28;20412;-60
2022/01/30 09:00:25;;;;;;;3.70;1.33;;;;;;;-2.85;65.89;97353.66;5033607;28;20049;-61
2022/01/30 09:02:52;;;;;;;2.78;1.52;;;;;;;-2.77;66.25;97358.41;5034180;28;20050;-58
2022/01/30 09:05:21;;;;;;;1.63;1.00;;;;;;;-2.80;65.74;97383.50;5033873;28;20049;-59
2022/01/30 09:07:48;;;;;;;2.05;1.40;;;;;;;-2.89;65.96;97344.50;5034706;28;20091;-58
2022/01/30 09:10:15;;;;;;;1.80;1.10;;;;;;;-2.82;65.84;97347.63;5034213;28;20053;-59
2022/01/30 09:12:42;;;;;;;2.72;1.40;;;;;;;-2.74;65.64;97346.13;5033675;28;20138;-60
2022/01/30 09:15:11;;;;;;;2.55;1.27;;;;;;;-2.73;66.09;97332.22;5034352;28;20389;-59
2022/01/30 09:17:40;;;;;;;3.13;1.40;;;;;;;-2.63;65.57;97332.00;5033237;28;20136;-60
2022/01/30 09:20:07;;;;;;;3.95;1.50;;;;;;;-2.51;65.09;97334.25;5034294;28;20057;-60
2022/01/30 09:22:34;;;;;;;2.28;1.13;;;;;;;-2.42;65.35;97330.53;5033174;28;20053;-56
2022/01/30 09:25:02;;;;;;;5.07;1.35;;;;;;;-2.10;64.51;97319.47;5033760;28;20065;-60
2022/01/30 09:27:29;;;;;;;3.60;1.90;;;;;;;-1.20;62.81;97332.06;5033363;28;20048;-60
2022/01/30 09:29:57;;;;;;;3.75;1.70;;;;;;;-0.66;60.91;97320.81;5033675;28;20084;-60
2022/01/30 09:32:23;;;;;;;13.63;4.38;;;;;;;-0.24;60.29;97328.38;5033745;28;20136;-56
2022/01/30 09:34:51;;;;;;;62.03;15.63;;;;;;;0.02;59.75;97321.03;5032075;28;20598;-56
2022/01/30 09:37:18;;;;;;;5.30;2.13;;;;;;;0.09;59.18;97298.72;5031673;28;20049;-58
2022/01/30 09:39:45;;;;;;;2.72;1.63;;;;;;;0.11;59.39;97297.25;5032058;28;20049;-58
2022/01/30 09:42:13;;;;;;;1.73;1.13;;;;;;;0.97;57.79;97287.88;5032950;28;20053;-59
2022/01/30 09:44:41;;;;;;;2.03;1.38;;;;;;;1.52;56.60;97307.03;5030083;28;20171;-58
2022/01/30 09:47:16;;;;;;;3.85;1.85;;;;;;;1.58;56.10;97286.53;5033201;28;20071;-56
2022/01/30 09:49:48;;;;;;;2.20;1.20;;;;;;;1.35;55.73;97283.25;5030234;28;20065;-57
2022/01/30 09:52:16;;;;;;;2.95;1.50;;;;;;;0.57;57.22;97296.63;5033314;28;20049;-55
2022/01/30 09:54:43;;;;;;;2.80;1.50;;;;;;;0.10;58.52;97294.84;5029733;28;20055;-55
2022/01/30 09:57:10;;;;;;;3.05;1.60;;;;;;;-0.30;59.13;97307.78;5032800;28;20428;-58
2022/01/30 09:59:38;;;;;;;3.58;1.50;;;;;;;-0.52;59.10;97302.41;5030557;28;20080;-57
2022/01/30 10:02:07;;;;;;;3.17;1.60;;;;;;;-0.70;59.21;97311.66;5033006;28;20495;-58
2022/01/30 10:04:35;;;;;;;2.40;1.48;;;;;;;-0.89;59.49;97289.25;5033326;28;20053;-56
2022/01/30 10:07:16;;;;;;;3.92;1.60;;;;;;;-1.05;59.40;97286.13;5032969;28;20053;-56
2022/01/30 10:09:49;;;;;;;2.42;1.45;;;;;;;-1.14;59.23;97292.66;5032880;28;20049;-56
2022/01/30 10:12:22;;;;;;;3.97;1.30;;;;;;;-1.20;59.72;97282.97;5031104;28;20057;-55
2022/01/30 10:15:05;;;;;;;5.22;1.35;;;;;;;-1.29;59.56;97263.84;5029764;28;20076;-55
2022/01/30 10:17:39;;;;;;;2.30;1.48;;;;;;;-1.41;59.64;97292.78;5030859;28;20068;-55
2022/01/30 10:20:27;;;;;;;2.42;1.38;;;;;;;-1.52;59.76;97284.06;5032377;28;20099;-56
2022/01/30 10:23:07;;;;;;;5.72;1.38;;;;;;;-1.59;60.25;97283.69;5031993;28;20117;-55
2022/01/30 10:25:37;;;;;;;3.58;1.77;;;;;;;-1.62;59.94;97280.78;5032192;28;20049;-59
2022/01/30 10:28:10;;;;;;;2.58;1.60;;;;;;;-1.57;60.14;97264.31;5031779;28;20532;-58
2022/01/30 10:31:02;;;;;;;22.17;8.65;;;;;;;-1.59;59.86;97282.88;5032305;28;21278;-57
2022/01/30 10:33:49;;;;;;;3.90;1.92;;;;;;;-1.53;59.77;97274.28;5030359;28;20428;-56
2022/01/30 10:36:24;;;;;;;3.88;1.92;;;;;;;-1.54;60.12;97261.75;5031754;28;20057;-59
2022/01/30 10:39:12;;;;;;;3.88;1.77;;;;;;;-1.50;60.43;97279.13;5032617;28;20119;-58
2022/01/30 10:41:52;;;;;;;4.22;1.58;;;;;;;-1.56;60.60;97271.38;5029144;28;20053;-57
2022/01/30 10:44:19;;;;;;;3.20;1.40;;;;;;;-1.59;60.31;97280.97;5032278;28;20049;-58
2022/01/30 10:46:48;;;;;;;6.75;1.50;;;;;;;-1.69;60.37;97247.72;5032610;28;20140;-58
2022/01/30 10:49:23;;;;;;;4.20;1.65;;;;;;;-1.70;60.88;97267.88;5032309;28;20053;-55
2022/01/30 10:52:03;;;;;;;3.30;1.40;;;;;;;-1.71;60.70;97249.94;5032636;28;20103;-58
2022/01/30 10:54:34;;;;;;;2.92;1.35;;;;;;;-1.78;60.82;97241.41;5031877;28;20056;-58
2022/01/30 10:57:05;;;;;;;4.50;1.58;;;;;;;-1.80;60.71;97238.16;5032329;28;20053;-56
2022/01/30 10:59:34;;;;;;;3.58;1.67;;;;;;;-1.74;61.03;97229.56;5027069;28;20107;-56
2022/01/30 11:02:14;;;;;;;4.32;1.73;;;;;;;-1.77;60.88;97226.66;5032087;28;20049;-56
2022/01/30 11:04:42;;;;;;;2.70;1.63;;;;;;;-1.78;61.08;97227.78;5031608;28;20057;-57
2022/01/30 11:07:09;;;;;;;4.68;2.38;;;;;;;-1.75;60.81;97227.16;5032400;28;20173;-58
2022/01/30 11:09:45;;;;;;;3.45;2.00;;;;;;;-1.77;61.01;97221.19;5031629;28;20516;-60
2022/01/30 11:12:15;;;;;;;3.75;1.70;;;;;;;-2.00;60.92;97209.50;5032466;28;20050;-57
2022/01/30 11:17:21;;;;;;;5.30;1.85;;;;;;;-2.05;61.86;97225.94;5031953;28;20139;-56
2022/01/30 11:19:53;;;;;;;4.07;1.20;;;;;;;-2.11;62.01;97203.47;5031543;28;20531;-59
2022/01/30 11:22:21;;;;;;;3.00;1.60;;;;;;;-2.24;62.13;97201.63;5031724;28;20115;-58
2022/01/30 11:25:01;;;;;;;4.57;1.50;;;;;;;-2.24;62.60;97193.47;5031316;28;20057;-58
2022/01/30 11:27:29;;;;;;;3.75;2.08;;;;;;;-2.23;62.82;97196.97;5031258;28;20115;-57
2022/01/30 11:29:56;;;;;;;6.13;2.00;;;;;;;-2.17;62.62;97193.81;5032321;28;20145;-58
2022/01/30 11:32:23;;;;;;;3.17;2.00;;;;;;;-2.20;62.93;97189.00;5032357;28;20057;-57
2022/01/30 11:34:53;;;;;;;3.10;1.88;;;;;;;-2.16;62.77;97200.88;5031247;28;20509;-59
2022/01/30 11:37:26;;;;;;;5.07;1.92;;;;;;;-2.09;62.64;97184.94;5031855;28;20057;-58
2022/01/30 11:39:53;;;;;;;;;;;;;;;-2.05;62.77;97182.38;5031897;28;20045;-58
2022/01/30 11:42:40;;;;;;;2.60;1.52;;;;;;;-2.01;62.08;97178.72;5030136;28;19948;-57
2022/01/30 11:45:07;;;;;;;6.60;2.08;;;;;;;-2.17;62.74;97180.22;5030578;28;20052;-57
2022/01/30 11:47:58;;;;;;;3.70;2.20;;;;;;;-2.16;62.93;97184.53;5034013;28;20145;-60
2022/01/30 11:50:31;;;;;;;3.25;1.83;;;;;;;-2.18;62.73;97181.34;5035394;28;20061;-57
2022/01/30 11:53:03;;;;;;;4.28;2.30;;;;;;;-2.21;62.95;97168.34;5033678;28;20060;-57
2022/01/30 11:55:43;;;;;;;5.65;1.83;;;;;;;-2.22;63.31;97179.53;5035343;28;20505;-58
2022/01/30 11:58:30;;;;;;;3.83;2.08;;;;;;;-2.18;62.88;97186.78;5034052;28;20050;-58
2022/01/30 12:00:58;;;;;;;17.75;8.68;;;;;;;-2.13;63.01;97170.31;5029995;28;20508;-57
2022/01/30 12:03:32;;;;;;;2.83;1.58;;;;;;;-2.14;62.97;97174.16;5030260;28;20045;-57
2022/01/30 12:06:20;;;;;;;2.78;1.60;;;;;;;-2.06;62.81;97169.88;5034756;28;20056;-58
2022/01/30 12:08:48;;;;;;;2.92;1.65;;;;;;;-2.04;62.78;97176.63;5034801;28;20128;-57
2022/01/30 12:11:39;;;;;;;17.90;6.00;;;;;;;-2.05;62.67;97164.13;5034727;28;20052;-58
2022/01/30 12:14:07;;;;;;;4.43;2.47;;;;;;;-2.03;62.98;97194.59;5034721;28;20152;-60
2022/01/30 12:16:57;;;;;;;3.88;2.10;;;;;;;-2.05;62.85;97175.03;5033973;28;20417;-58
2022/01/30 12:19:30;;;;;;;4.28;2.08;;;;;;;-2.12;62.70;97169.22;5033874;28;20144;-58
2022/01/30 12:21:58;;;;;;;7.15;2.47;;;;;;;-2.18;63.12;97175.88;5033846;28;20523;-58
2022/01/30 12:24:26;;;;;;;6.03;2.28;;;;;;;-2.14;63.10;97187.75;5034560;28;20061;-60
2022/01/30 12:26:56;;;;;;;3.00;1.92;;;;;;;-2.11;62.71;97186.34;5030738;28;20049;-58
2022/01/30 12:29:47;;;;;;;3.78;1.77;;;;;;;-2.14;62.75;97178.78;5034487;28;20516;-59
2022/01/30 12:32:20;;;;;;;9.07;2.25;;;;;;;-2.18;63.07;97170.44;5034702;28;20531;-54
2022/01/30 12:34:52;;;;;;;4.35;2.05;;;;;;;-2.15;63.09;97174.47;5034542;28;20088;-58
2022/01/30 12:37:21;;;;;;;6.13;2.70;;;;;;;-2.16;62.96;97176.38;5034895;28;20049;-57
2022/01/30 12:39:48;;;;;;;6.57;2.38;;;;;;;-2.23;63.18;97178.72;5034302;28;20504;-58
2022/01/30 12:42:17;;;;;;;4.65;2.28;;;;;;;-2.25;63.34;97178.22;5034725;28;20068;-58
2022/01/30 12:44:45;;;;;;;5.05;2.90;;;;;;;-2.26;63.21;97184.78;5032715;28;20076;-58